createdAt,value
2022-12-20T00:00:18.440Z,-1.90
2022-12-20T00:01:21.063Z,-1.71
2022-12-20T00:02:18.372Z,-1.84
2022-12-20T00:03:15.364Z,-1.68
2022-12-20T00:04:12.800Z,-1.79
2022-12-20T00:05:09.428Z,-1.89
2022-12-20T00:06:06.334Z,-1.94
2022-12-20T00:07:02.933Z,-1.94
2022-12-20T00:07:59.498Z,-1.80
2022-12-20T00:09:01.371Z,-1.34
2022-12-20T00:09:58.056Z,-1.64
2022-12-20T00:10:54.797Z,-1.36
2022-12-20T00:11:51.586Z,-1.29
2022-12-20T00:12:48.454Z,-1.67
2022-12-20T00:13:47.068Z,-1.31
2022-12-20T00:14:43.650Z,-1.65
2022-12-20T00:15:40.303Z,-1.80
2022-12-20T00:16:37.708Z,-2.20
2022-12-20T00:17:34.493Z,-2.22
2022-12-20T00:18:31.129Z,-2.16
2022-12-20T00:19:27.752Z,-2.18
2022-12-20T00:20:25.190Z,-2.21
2022-12-20T00:21:22.960Z,-1.64
2022-12-20T00:22:19.698Z,-1.71
2022-12-20T00:23:16.261Z,-1.64
2022-12-20T00:24:12.937Z,-1.69
2022-12-20T00:25:09.739Z,-1.67
2022-12-20T00:26:15.392Z,-1.77
2022-12-20T00:27:11.981Z,-1.82
2022-12-20T00:28:08.639Z,-1.68
2022-12-20T00:29:06.106Z,-1.72
2022-12-20T00:30:03.353Z,-1.75
2022-12-20T00:31:00.583Z,-1.87
2022-12-20T00:31:57.228Z,-1.95
2022-12-20T00:32:53.960Z,-2.16
2022-12-20T00:33:53.225Z,-1.91
2022-12-20T00:34:49.792Z,-1.85
2022-12-20T00:35:46.434Z,-1.88
2022-12-20T00:36:43.160Z,-2.06
2022-12-20T00:37:39.984Z,-1.62
2022-12-20T00:38:36.921Z,-1.55
2022-12-20T00:39:33.527Z,-1.59
2022-12-20T00:40:30.191Z,-1.63
2022-12-20T00:41:29.900Z,-1.74
2022-12-20T00:42:26.598Z,-1.42
2022-12-20T00:43:23.147Z,-1.36
2022-12-20T00:44:19.755Z,-1.60
2022-12-20T00:45:16.677Z,-1.63
2022-12-20T00:46:14.603Z,-1.38
2022-12-20T00:47:11.268Z,-1.41
2022-12-20T00:48:07.928Z,-1.59
2022-12-20T00:49:04.576Z,-1.67
2022-12-20T00:50:01.183Z,-1.70
2022-12-20T00:50:59.914Z,-1.62
2022-12-20T00:51:56.485Z,-1.75
2022-12-20T00:52:53.091Z,-1.77
2022-12-20T00:53:50.170Z,-1.85
2022-12-20T00:54:46.890Z,-1.72
2022-12-20T00:55:46.415Z,-2.08
2022-12-20T00:56:43.185Z,-1.63
2022-12-20T00:57:40.167Z,-1.42
2022-12-20T00:58:38.804Z,-1.10
2022-12-20T00:59:35.481Z,-1.03
2022-12-20T01:00:32.211Z,-1.39
2022-12-20T01:01:31.855Z,-1.67
2022-12-20T01:02:28.644Z,-1.69
2022-12-20T01:03:26.677Z,-1.45
2022-12-20T01:04:23.643Z,-1.36
2022-12-20T01:05:20.292Z,-1.32
2022-12-20T01:06:17.599Z,-1.51
2022-12-20T01:07:14.598Z,-1.33
2022-12-20T01:08:11.354Z,-1.41
2022-12-20T01:09:08.101Z,-1.39
2022-12-20T01:10:05.038Z,-1.59
2022-12-20T01:11:23.753Z,-1.60
2022-12-20T01:12:20.347Z,-1.60
2022-12-20T01:13:16.986Z,-1.80
2022-12-20T01:14:16.483Z,-1.31
2022-12-20T01:15:13.481Z,-1.42
2022-12-20T01:16:14.707Z,-1.54
2022-12-20T01:17:11.368Z,-1.52
2022-12-20T01:18:08.007Z,-1.69
2022-12-20T01:19:05.888Z,-1.45
2022-12-20T01:20:04.713Z,-1.35
2022-12-20T01:21:06.883Z,-1.58
2022-12-20T01:22:03.917Z,-1.51
2022-12-20T01:23:00.474Z,-1.60
2022-12-20T01:23:57.535Z,-1.71
2022-12-20T01:24:54.136Z,-1.71
2022-12-20T01:25:51.525Z,-1.41
2022-12-20T01:26:48.551Z,-1.21
2022-12-20T01:27:45.278Z,-1.33
2022-12-20T01:28:45.352Z,-1.48
2022-12-20T01:29:41.985Z,-1.80
2022-12-20T01:30:41.409Z,-1.84
2022-12-20T01:31:38.305Z,-1.64
2022-12-20T01:32:35.042Z,-1.63
2022-12-20T01:33:31.634Z,-1.59
2022-12-20T01:34:28.232Z,-1.55
2022-12-20T01:35:24.865Z,-1.50
2022-12-20T01:36:27.836Z,-1.71
2022-12-20T01:37:24.491Z,-1.96
2022-12-20T01:38:21.110Z,-1.74
2022-12-20T01:39:17.800Z,-1.55
2022-12-20T01:40:14.539Z,-1.44
2022-12-20T01:41:17.170Z,-1.56
2022-12-20T01:42:15.186Z,-1.66
2022-12-20T01:43:15.242Z,-1.61
2022-12-20T01:44:17.861Z,-1.64
2022-12-20T01:45:23.081Z,-1.62
2022-12-20T01:46:23.065Z,-1.73
2022-12-20T01:47:19.877Z,-2.15
2022-12-20T01:48:21.799Z,-1.84
2022-12-20T01:49:30.367Z,-1.78
2022-12-20T01:50:27.074Z,-1.91
2022-12-20T01:51:24.669Z,-2.05
2022-12-20T01:52:43.150Z,-1.97
2022-12-20T01:53:39.822Z,-1.93
2022-12-20T01:54:59.380Z,-1.95
2022-12-20T01:55:56.005Z,-1.95
2022-12-20T01:56:57.948Z,-1.87
2022-12-20T01:58:01.179Z,-1.89
2022-12-20T01:58:58.557Z,-2.53
2022-12-20T01:59:56.878Z,-2.26
2022-12-20T02:00:53.670Z,-2.28
2022-12-20T02:01:50.526Z,-2.04
2022-12-20T02:02:49.401Z,-2.00
2022-12-20T02:03:47.206Z,-2.08
2022-12-20T02:04:43.855Z,-1.97
2022-12-20T02:05:47.393Z,-1.98
2022-12-20T02:06:44.173Z,-2.35
2022-12-20T02:07:42.688Z,-1.93
2022-12-20T02:08:39.451Z,-2.00
2022-12-20T02:09:38.387Z,-2.28
2022-12-20T02:11:04.405Z,-1.85
2022-12-20T02:12:14.446Z,-1.64
2022-12-20T02:13:25.163Z,-1.68
2022-12-20T02:14:51.288Z,-1.76
2022-12-20T02:15:55.255Z,-1.92
2022-12-20T02:17:33.174Z,-1.57
2022-12-20T02:18:43.413Z,-2.05
2022-12-20T02:19:39.983Z,-2.08
2022-12-20T02:20:45.771Z,-2.03
2022-12-20T02:22:22.012Z,-2.25
2022-12-20T02:23:55.878Z,-1.60
2022-12-20T02:25:14.061Z,-1.81
2022-12-20T02:26:16.525Z,-1.59
2022-12-20T02:27:17.213Z,-1.92
2022-12-20T02:28:19.774Z,-1.90
2022-12-20T02:29:30.050Z,-2.06
2022-12-20T02:30:33.042Z,-2.01
2022-12-20T02:31:38.169Z,-2.16
2022-12-20T02:32:46.801Z,-2.20
2022-12-20T02:33:48.112Z,-1.85
2022-12-20T02:34:45.195Z,-2.07
2022-12-20T02:35:42.794Z,-2.14
2022-12-20T02:36:39.868Z,-2.12
2022-12-20T02:37:36.702Z,-2.06
2022-12-20T02:38:38.247Z,-2.12
2022-12-20T02:39:37.834Z,-2.06
2022-12-20T02:40:41.391Z,-2.21
2022-12-20T02:41:43.867Z,-2.08
2022-12-20T02:42:40.332Z,-2.01
2022-12-20T02:43:59.250Z,-1.66
2022-12-20T02:45:17.749Z,-2.04
2022-12-20T02:46:16.758Z,-1.69
2022-12-20T02:47:21.386Z,-1.96
2022-12-20T02:48:18.765Z,-2.01
2022-12-20T02:49:20.504Z,-2.01
2022-12-20T02:50:22.871Z,-1.97
2022-12-20T02:51:22.173Z,-2.01
2022-12-20T02:52:22.533Z,-2.09
2022-12-20T02:53:19.249Z,-2.01
2022-12-20T02:54:17.335Z,-2.12
2022-12-20T02:55:14.230Z,-2.13
2022-12-20T02:56:15.533Z,-2.15
2022-12-20T02:57:20.967Z,-2.13
2022-12-20T02:58:30.505Z,-2.16
2022-12-20T02:59:36.542Z,-2.36
2022-12-20T03:00:41.065Z,-2.21
2022-12-20T03:01:52.916Z,-2.00
2022-12-20T03:03:09.632Z,-2.05
2022-12-20T03:04:08.176Z,-2.09
2022-12-20T03:05:05.961Z,-2.06
2022-12-20T03:06:02.648Z,-2.40
2022-12-20T03:07:02.137Z,-2.22
2022-12-20T03:07:58.867Z,-1.90
2022-12-20T03:08:55.427Z,-2.03
2022-12-20T03:09:52.186Z,-2.73
2022-12-20T03:10:51.393Z,-2.66
2022-12-20T03:11:48.046Z,-2.48
2022-12-20T03:12:44.626Z,-2.12
2022-12-20T03:13:41.520Z,-2.55
2022-12-20T03:14:38.986Z,-2.62
2022-12-20T03:15:36.110Z,-2.35
2022-12-20T03:16:32.848Z,-2.33
2022-12-20T03:17:29.522Z,-2.61
2022-12-20T03:18:26.159Z,-2.60
2022-12-20T03:19:23.220Z,-2.32
2022-12-20T03:20:19.768Z,-2.13
2022-12-20T03:21:16.381Z,-1.97
2022-12-20T03:22:13.021Z,-2.19
2022-12-20T03:23:10.011Z,-2.37
2022-12-20T03:24:06.987Z,-2.20
2022-12-20T03:25:03.836Z,-2.36
2022-12-20T03:26:00.423Z,-2.66
2022-12-20T03:26:57.017Z,-2.38
2022-12-20T03:27:53.674Z,-2.48
2022-12-20T03:28:50.540Z,-2.59
2022-12-20T03:29:47.148Z,-2.36
2022-12-20T03:30:43.943Z,-2.62
2022-12-20T03:31:40.639Z,-2.65
2022-12-20T03:32:37.308Z,-2.21
2022-12-20T03:33:34.005Z,-2.32
2022-12-20T03:34:30.623Z,-2.72
2022-12-20T03:35:27.246Z,-2.49
2022-12-20T03:36:24.527Z,-3.71
2022-12-20T03:37:21.839Z,-2.60
2022-12-20T03:38:18.562Z,-2.59
2022-12-20T03:39:15.193Z,-2.56
2022-12-20T03:40:12.403Z,-2.59
2022-12-20T03:41:09.104Z,-2.90
2022-12-20T03:42:05.923Z,-2.36
2022-12-20T03:43:02.555Z,-2.33
2022-12-20T03:43:59.228Z,-2.44
2022-12-20T03:44:55.962Z,-2.50
2022-12-20T03:45:52.651Z,-2.56
2022-12-20T03:46:49.380Z,-2.62
2022-12-20T03:47:46.211Z,-2.60
2022-12-20T03:48:43.358Z,-2.78
2022-12-20T03:49:39.966Z,-2.87
2022-12-20T03:50:37.325Z,-2.79
2022-12-20T03:51:34.037Z,-2.80
2022-12-20T03:52:30.812Z,-2.84
2022-12-20T03:53:27.448Z,-2.81
2022-12-20T03:54:24.025Z,-2.77
2022-12-20T03:55:20.658Z,-2.54
2022-12-20T03:56:17.290Z,-3.00
2022-12-20T03:57:14.052Z,-3.06
2022-12-20T03:58:10.673Z,-3.08
2022-12-20T03:59:07.286Z,-3.18
2022-12-20T04:00:04.343Z,-3.00
2022-12-20T04:01:01.244Z,-3.09
2022-12-20T04:01:58.005Z,-3.07
2022-12-20T04:02:54.897Z,-3.17
2022-12-20T04:03:51.952Z,-3.31
2022-12-20T04:04:49.323Z,-3.24
2022-12-20T04:05:46.044Z,-3.23
2022-12-20T04:06:43.072Z,-3.31
2022-12-20T04:07:39.796Z,-3.26
2022-12-20T04:08:36.496Z,-3.19
2022-12-20T04:09:33.168Z,-3.18
2022-12-20T04:10:29.771Z,-2.96
2022-12-20T04:11:26.488Z,-3.21
2022-12-20T04:12:23.230Z,-3.25
2022-12-20T04:13:20.014Z,-3.22
2022-12-20T04:14:16.766Z,-3.31
2022-12-20T04:15:13.364Z,-3.34
2022-12-20T04:16:10.941Z,-3.28
2022-12-20T04:17:07.734Z,-3.41
2022-12-20T04:18:04.356Z,-3.59
2022-12-20T04:19:01.004Z,-3.56
2022-12-20T04:19:57.608Z,-3.64
2022-12-20T04:20:54.987Z,-3.50
2022-12-20T04:21:51.852Z,-3.70
2022-12-20T04:22:50.859Z,-3.93
2022-12-20T04:23:47.433Z,-3.79
2022-12-20T04:24:44.095Z,-4.11
2022-12-20T04:25:40.829Z,-3.82
2022-12-20T04:26:37.868Z,-3.85
2022-12-20T04:27:34.451Z,-3.43
2022-12-20T04:28:31.771Z,-3.69
2022-12-20T04:29:28.441Z,-3.85
2022-12-20T04:30:25.862Z,-3.88
2022-12-20T04:31:24.376Z,-3.88
2022-12-20T04:32:21.299Z,-3.82
2022-12-20T04:33:18.041Z,-3.95
2022-12-20T04:34:14.724Z,-4.06
2022-12-20T04:35:11.500Z,-3.65
2022-12-20T04:36:08.246Z,-3.67
2022-12-20T04:37:04.903Z,-3.80
2022-12-20T04:38:01.512Z,-3.84
2022-12-20T04:38:58.104Z,-3.91
2022-12-20T04:39:55.542Z,-4.04
2022-12-20T04:40:53.928Z,-4.07
2022-12-20T04:41:50.503Z,-4.55
2022-12-20T04:42:47.121Z,-4.22
2022-12-20T04:43:43.711Z,-4.18
2022-12-20T04:44:40.387Z,-4.32
2022-12-20T04:45:36.987Z,-4.12
2022-12-20T04:46:33.755Z,-4.43
2022-12-20T04:47:30.466Z,-4.23
2022-12-20T04:49:45.460Z,-4.80
2022-12-20T04:50:42.477Z,-4.71
2022-12-20T04:51:39.052Z,-4.55
2022-12-20T04:52:53.986Z,-4.55
2022-12-20T04:53:50.700Z,-4.45
2022-12-20T04:54:47.878Z,-4.43
2022-12-20T04:55:44.512Z,-4.44
2022-12-20T04:56:41.184Z,-4.54
2022-12-20T04:57:37.772Z,-4.90
2022-12-20T04:58:34.594Z,-4.63
2022-12-20T04:59:31.276Z,-4.41
2022-12-20T05:00:27.835Z,-4.40
2022-12-20T05:01:25.023Z,-4.41
2022-12-20T05:02:21.891Z,-4.42
2022-12-20T05:03:19.963Z,-4.47
2022-12-20T05:04:16.768Z,-4.45
2022-12-20T05:05:14.191Z,-4.41
2022-12-20T05:06:11.656Z,-4.84
2022-12-20T05:07:08.451Z,-4.63
2022-12-20T05:08:05.236Z,-4.51
2022-12-20T05:09:01.810Z,-4.59
2022-12-20T05:09:58.346Z,-4.61
2022-12-20T05:10:54.978Z,-4.33
2022-12-20T05:11:51.616Z,-4.24
2022-12-20T05:12:48.560Z,-4.49
2022-12-20T05:13:45.155Z,-4.47
2022-12-20T05:14:41.797Z,-4.50
2022-12-20T05:15:38.578Z,-4.77
2022-12-20T05:16:35.736Z,-4.66
2022-12-20T05:17:34.242Z,-4.34
2022-12-20T05:18:31.805Z,-4.64
2022-12-20T05:19:28.414Z,-4.48
2022-12-20T05:20:31.940Z,-4.53
2022-12-20T05:21:46.966Z,-4.30
2022-12-20T05:23:02.418Z,-4.69
2022-12-20T05:24:17.650Z,-4.28
2022-12-20T05:25:33.059Z,-4.15
2022-12-20T05:26:32.957Z,-4.80
2022-12-20T05:27:30.518Z,-4.72
2022-12-20T05:28:27.269Z,-4.79
2022-12-20T05:29:23.866Z,-4.90
2022-12-20T05:30:20.544Z,-4.79
2022-12-20T05:31:17.315Z,-4.41
2022-12-20T05:32:13.971Z,-4.19
2022-12-20T05:33:12.737Z,-3.97
2022-12-20T05:34:09.854Z,-4.09
2022-12-20T05:35:06.719Z,-4.39
2022-12-20T05:36:03.818Z,-4.43
2022-12-20T05:37:00.485Z,-4.38
2022-12-20T05:37:57.072Z,-4.55
2022-12-20T05:38:56.747Z,-4.82
2022-12-20T05:39:58.396Z,-4.95
2022-12-20T05:40:55.089Z,-4.72
2022-12-20T05:41:53.698Z,-4.52
2022-12-20T05:42:50.425Z,-4.70
2022-12-20T05:43:47.279Z,-4.90
2022-12-20T05:44:44.017Z,-5.08
2022-12-20T05:45:40.974Z,-5.13
2022-12-20T05:46:37.774Z,-5.38
2022-12-20T05:47:34.501Z,-5.39
2022-12-20T05:48:31.248Z,-5.31
2022-12-20T05:49:29.083Z,-5.41
2022-12-20T05:50:26.153Z,-5.30
2022-12-20T05:51:22.816Z,-5.36
2022-12-20T05:52:19.570Z,-5.27
2022-12-20T05:53:17.793Z,-5.30
2022-12-20T05:54:14.365Z,-5.28
2022-12-20T05:55:10.982Z,-5.25
2022-12-20T05:56:07.811Z,-5.32
2022-12-20T05:57:04.464Z,-5.39
2022-12-20T05:58:01.063Z,-5.40
2022-12-20T05:58:59.122Z,-5.50
2022-12-20T05:59:55.722Z,-5.37
2022-12-20T06:00:52.351Z,-5.70
2022-12-20T06:01:49.027Z,-5.40
2022-12-20T06:02:45.943Z,-5.45
2022-12-20T06:03:42.873Z,-5.45
2022-12-20T06:04:40.620Z,-5.46
2022-12-20T06:05:38.577Z,-5.49
2022-12-20T06:06:35.213Z,-5.47
2022-12-20T06:07:32.026Z,-5.44
2022-12-20T06:08:28.738Z,-5.20
2022-12-20T06:09:25.571Z,-5.28
2022-12-20T06:10:22.160Z,-5.24
2022-12-20T06:11:18.750Z,-4.97
2022-12-20T06:12:15.348Z,-5.61
2022-12-20T06:13:11.933Z,-5.62
2022-12-20T06:14:08.641Z,-5.24
2022-12-20T06:15:05.634Z,-5.09
2022-12-20T06:16:02.337Z,-5.05
2022-12-20T06:16:59.238Z,-5.01
2022-12-20T06:17:56.315Z,-5.38
2022-12-20T06:18:53.377Z,-4.99
2022-12-20T06:19:49.998Z,-5.01
2022-12-20T06:20:51.529Z,-4.94
2022-12-20T06:21:48.197Z,-4.72
2022-12-20T06:22:45.208Z,-4.18
2022-12-20T06:23:41.773Z,-4.39
2022-12-20T06:24:44.313Z,-4.66
2022-12-20T06:25:44.900Z,-4.88
2022-12-20T06:26:41.680Z,-4.60
2022-12-20T06:27:38.521Z,-4.17
2022-12-20T06:28:36.009Z,-4.65
2022-12-20T06:29:33.536Z,-4.48
2022-12-20T06:30:33.829Z,-4.14
2022-12-20T06:31:31.052Z,-4.03
2022-12-20T06:32:27.752Z,-4.28
2022-12-20T06:33:25.237Z,-3.95
2022-12-20T06:34:22.739Z,-3.50
2022-12-20T06:35:19.319Z,-3.37
2022-12-20T06:36:16.020Z,-3.56
2022-12-20T06:37:12.867Z,-3.80
2022-12-20T06:38:09.449Z,-3.81
2022-12-20T06:39:09.614Z,-3.70
2022-12-20T06:40:09.543Z,-3.54
2022-12-20T06:41:06.120Z,-3.81
2022-12-20T06:42:02.790Z,-3.89
2022-12-20T06:42:59.398Z,-3.87
2022-12-20T06:43:55.976Z,-3.87
2022-12-20T06:44:52.525Z,-3.61
2022-12-20T06:45:49.225Z,-3.78
2022-12-20T06:46:45.916Z,-3.31
2022-12-20T06:47:42.485Z,-3.17
2022-12-20T06:48:39.096Z,-3.09
2022-12-20T06:49:35.713Z,-3.05
2022-12-20T06:50:32.313Z,-3.39
2022-12-20T06:51:28.893Z,-3.33
2022-12-20T06:52:25.936Z,-3.13
2022-12-20T06:53:22.805Z,-3.00
2022-12-20T06:54:19.428Z,-2.96
2022-12-20T06:55:16.157Z,-3.20
2022-12-20T06:56:12.842Z,-3.30
2022-12-20T06:57:09.461Z,-2.92
2022-12-20T06:58:06.113Z,-2.94
2022-12-20T06:59:02.721Z,-2.98
2022-12-20T06:59:59.377Z,-2.78
2022-12-20T07:00:56.103Z,-3.13
2022-12-20T07:01:52.783Z,-3.06
2022-12-20T07:02:49.723Z,-2.83
2022-12-20T07:03:46.898Z,-2.83
2022-12-20T07:04:43.584Z,-2.75
2022-12-20T07:05:41.020Z,-2.88
2022-12-20T07:06:37.827Z,-3.10
2022-12-20T07:07:40.666Z,-3.03
2022-12-20T07:08:41.090Z,-3.07
2022-12-20T07:09:41.378Z,-3.74
2022-12-20T07:10:38.242Z,-2.66
2022-12-20T07:11:34.977Z,-3.11
2022-12-20T07:12:33.323Z,-3.03
2022-12-20T07:13:29.957Z,-2.89
2022-12-20T07:14:26.754Z,-2.76
2022-12-20T07:15:23.420Z,-2.54
2022-12-20T07:16:20.179Z,-2.37
2022-12-20T07:17:16.819Z,-2.42
2022-12-20T07:18:13.392Z,-2.78
2022-12-20T07:19:14.535Z,-2.93
2022-12-20T07:20:14.014Z,-3.11
2022-12-20T07:21:10.945Z,-2.81
2022-12-20T07:22:07.629Z,-2.45
2022-12-20T07:23:04.469Z,-2.68
2022-12-20T07:24:01.577Z,-2.70
2022-12-20T07:24:58.192Z,-2.58
2022-12-20T07:26:00.292Z,-2.79
2022-12-20T07:26:56.875Z,-2.76
2022-12-20T07:27:53.575Z,-2.43
2022-12-20T07:28:50.134Z,-2.46
2022-12-20T07:29:46.704Z,-2.51
2022-12-20T07:30:43.364Z,-2.48
2022-12-20T07:31:40.276Z,-2.93
2022-12-20T07:32:37.402Z,-2.84
2022-12-20T07:33:34.721Z,-2.81
2022-12-20T07:34:31.359Z,-3.21
2022-12-20T07:35:27.956Z,-2.79
2022-12-20T07:36:24.618Z,-2.84
2022-12-20T07:37:21.591Z,-2.58
2022-12-20T07:38:18.219Z,-2.47
2022-12-20T07:39:15.069Z,-2.52
2022-12-20T07:40:12.355Z,-2.53
2022-12-20T07:41:16.840Z,-2.46
2022-12-20T07:42:13.908Z,-2.10
2022-12-20T07:43:10.991Z,-1.82
2022-12-20T07:44:07.726Z,-2.07
2022-12-20T07:45:04.578Z,-2.14
2022-12-20T07:46:01.473Z,-2.10
2022-12-20T07:46:58.696Z,-2.16
2022-12-20T07:47:57.232Z,-2.51
2022-12-20T07:48:53.905Z,-2.48
2022-12-20T07:49:50.514Z,-2.40
2022-12-20T07:50:47.475Z,-2.56
2022-12-20T07:51:48.572Z,-2.44
2022-12-20T07:52:47.261Z,-2.32
2022-12-20T07:53:48.945Z,-2.37
2022-12-20T07:54:51.654Z,-2.39
2022-12-20T07:55:49.259Z,-2.12
2022-12-20T07:56:50.576Z,-2.34
2022-12-20T07:57:58.876Z,-1.81
2022-12-20T07:58:58.841Z,-2.10
2022-12-20T07:59:59.331Z,-2.14
2022-12-20T08:00:57.905Z,-1.75
2022-12-20T08:02:02.353Z,-1.73
2022-12-20T08:03:17.019Z,-1.92
2022-12-20T08:04:21.346Z,-1.96
2022-12-20T08:05:18.101Z,-1.95
2022-12-20T08:06:16.641Z,-2.31
2022-12-20T08:07:13.400Z,-2.20
2022-12-20T08:08:10.169Z,-2.01
2022-12-20T08:09:07.197Z,-2.26
2022-12-20T08:10:05.778Z,-1.91
2022-12-20T08:11:03.902Z,-1.49
2022-12-20T08:12:00.968Z,-1.21
2022-12-20T08:12:58.068Z,-1.63
2022-12-20T08:13:58.098Z,-1.58
2022-12-20T08:14:56.492Z,-1.87
2022-12-20T08:15:53.196Z,-1.89
2022-12-20T08:16:49.851Z,-1.73
2022-12-20T08:17:46.461Z,-1.44
2022-12-20T08:18:43.273Z,-1.51
2022-12-20T08:19:39.944Z,-1.44
2022-12-20T08:20:36.571Z,-1.43
2022-12-20T08:21:33.253Z,-1.80
2022-12-20T08:22:29.883Z,-1.81
2022-12-20T08:23:26.565Z,-1.71
2022-12-20T08:24:23.353Z,-1.67
2022-12-20T08:25:21.575Z,-1.39
2022-12-20T08:26:18.800Z,-1.70
2022-12-20T08:27:15.436Z,-1.34
2022-12-20T08:28:12.097Z,-2.00
2022-12-20T08:29:09.110Z,-1.84
2022-12-20T08:30:08.564Z,-1.74
2022-12-20T08:31:07.608Z,-1.84
2022-12-20T08:32:04.480Z,-1.58
2022-12-20T08:33:01.151Z,-1.42
2022-12-20T08:33:57.769Z,-1.31
2022-12-20T08:34:54.405Z,-1.57
2022-12-20T08:35:58.309Z,-1.66
2022-12-20T08:36:54.950Z,-1.47
2022-12-20T08:37:52.872Z,-1.09
2022-12-20T08:38:49.503Z,-1.08
2022-12-20T08:39:46.120Z,-1.06
2022-12-20T08:40:42.758Z,-1.08
2022-12-20T08:41:39.379Z,-1.23
2022-12-20T08:42:36.012Z,-1.19
2022-12-20T08:43:35.145Z,-1.51
2022-12-20T08:44:31.793Z,-1.04
2022-12-20T08:45:28.386Z,-0.84
2022-12-20T08:46:25.227Z,-1.14
2022-12-20T08:47:21.996Z,-1.19
2022-12-20T08:48:18.617Z,-1.33
2022-12-20T08:49:15.315Z,-1.00
2022-12-20T08:50:13.691Z,-0.54
2022-12-20T08:51:11.945Z,-0.33
2022-12-20T08:52:08.575Z,-0.28
2022-12-20T08:53:05.151Z,-0.36
2022-12-20T08:54:02.786Z,-0.56
2022-12-20T08:55:01.672Z,-0.61
2022-12-20T08:56:13.558Z,-0.70
2022-12-20T08:57:10.267Z,-0.58
2022-12-20T08:58:06.931Z,-0.57
2022-12-20T08:59:03.590Z,-0.72
2022-12-20T09:00:00.220Z,-0.32
2022-12-20T09:01:04.604Z,-0.54
2022-12-20T09:02:04.802Z,-0.52
2022-12-20T09:03:01.703Z,-0.29
2022-12-20T09:03:59.481Z,-0.27
2022-12-20T09:04:56.834Z,-0.28
2022-12-20T09:05:53.389Z,-0.35
2022-12-20T09:06:50.057Z,-0.49
2022-12-20T09:07:47.716Z,-0.28
2022-12-20T09:08:44.735Z,-0.53
2022-12-20T09:09:41.348Z,-0.24
2022-12-20T09:10:37.959Z,0.14
2022-12-20T09:11:34.617Z,-0.72
2022-12-20T09:12:31.259Z,-0.54
2022-12-20T09:13:27.882Z,-0.49
2022-12-20T09:14:25.805Z,-0.60
2022-12-20T09:15:22.463Z,-0.35
2022-12-20T09:16:21.899Z,0.03
2022-12-20T09:17:18.594Z,-0.36
2022-12-20T09:18:15.191Z,-0.61
2022-12-20T09:19:14.143Z,-0.12
2022-12-20T09:20:10.879Z,-0.18
2022-12-20T09:21:09.591Z,-0.24
2022-12-20T09:22:06.280Z,-0.30
2022-12-20T09:23:02.885Z,-0.12
2022-12-20T09:23:59.675Z,-0.38
2022-12-20T09:24:56.916Z,-0.65
2022-12-20T09:25:54.229Z,-0.91
2022-12-20T09:26:52.291Z,-0.20
2022-12-20T09:27:49.025Z,0.20
2022-12-20T09:28:46.333Z,0.24
2022-12-20T09:29:43.093Z,0.28
2022-12-20T09:30:39.772Z,0.04
2022-12-20T09:31:37.815Z,-0.18
2022-12-20T09:32:34.620Z,0.03
2022-12-20T09:33:32.751Z,-0.21
2022-12-20T09:34:29.428Z,0.11
2022-12-20T09:35:26.849Z,0.29
2022-12-20T09:36:24.754Z,-0.04
2022-12-20T09:37:21.449Z,-0.42
2022-12-20T09:38:18.056Z,0.18
2022-12-20T09:39:14.666Z,0.58
2022-12-20T09:40:22.698Z,0.23
2022-12-20T09:41:38.317Z,-0.08
2022-12-20T09:42:35.063Z,0.07
2022-12-20T09:43:33.216Z,0.28
2022-12-20T09:44:36.008Z,-0.02
2022-12-20T09:45:36.759Z,0.07
2022-12-20T09:46:33.551Z,0.13
2022-12-20T09:47:31.854Z,0.54
2022-12-20T09:48:38.992Z,0.03
2022-12-20T09:49:39.445Z,-0.07
2022-12-20T09:50:45.113Z,0.02
2022-12-20T09:52:02.922Z,0.40
2022-12-20T09:53:06.433Z,0.28
2022-12-20T09:54:47.378Z,-0.14
2022-12-20T09:55:52.245Z,-0.04
2022-12-20T09:57:03.127Z,0.34
2022-12-20T09:58:19.132Z,0.13
2022-12-20T09:59:19.717Z,0.27
2022-12-20T10:00:19.456Z,0.46
2022-12-20T10:01:26.064Z,0.87
2022-12-20T10:02:55.595Z,0.80
2022-12-20T10:03:43.100Z,-0.06
2022-12-20T10:04:40.082Z,0.44
2022-12-20T10:05:54.182Z,0.29
2022-12-20T10:07:26.105Z,0.05
2022-12-20T10:08:27.711Z,0.03
2022-12-20T10:10:08.817Z,0.66
2022-12-20T10:11:13.058Z,0.76
2022-12-20T10:12:12.599Z,0.68
2022-12-20T10:13:15.573Z,1.13
2022-12-20T10:14:17.877Z,0.92
2022-12-20T10:15:26.968Z,1.17
2022-12-20T10:16:26.408Z,1.01
2022-12-20T10:17:38.061Z,1.29
2022-12-20T10:19:06.867Z,1.37
2022-12-20T10:20:14.229Z,1.00
2022-12-20T10:21:29.632Z,1.33
2022-12-20T10:22:39.507Z,0.70
2022-12-20T10:23:58.018Z,0.88
2022-12-20T10:25:19.838Z,0.99
2022-12-20T10:26:16.383Z,0.91
2022-12-20T10:27:21.458Z,0.53
2022-12-20T10:28:21.238Z,-0.04
2022-12-20T10:29:19.463Z,0.61
2022-12-20T10:30:19.525Z,1.08
2022-12-20T10:31:18.610Z,0.92
2022-12-20T10:32:18.868Z,0.74
2022-12-20T10:33:22.257Z,1.21
2022-12-20T10:34:18.931Z,1.32
2022-12-20T10:35:15.548Z,1.50
2022-12-20T10:36:34.811Z,1.31
2022-12-20T10:37:31.449Z,1.05
2022-12-20T10:38:44.878Z,0.99
2022-12-20T10:39:43.801Z,1.06
2022-12-20T10:42:22.350Z,0.84
2022-12-20T10:43:23.596Z,0.79
2022-12-20T10:44:20.144Z,1.00
2022-12-20T10:45:16.720Z,1.50
2022-12-20T10:46:16.794Z,1.53
2022-12-20T10:47:36.731Z,1.39
2022-12-20T10:48:42.524Z,1.62
2022-12-20T10:49:41.129Z,1.57
2022-12-20T10:50:37.897Z,1.50
2022-12-20T10:51:34.538Z,1.52
2022-12-20T10:52:31.290Z,1.41
2022-12-20T10:53:29.066Z,1.34
2022-12-20T10:54:36.128Z,1.25
2022-12-20T10:55:36.989Z,1.58
2022-12-20T10:56:36.578Z,1.41
2022-12-20T10:57:33.655Z,0.95
2022-12-20T10:58:36.125Z,1.38
2022-12-20T10:59:38.290Z,1.42
2022-12-20T11:00:35.073Z,1.09
2022-12-20T11:01:35.588Z,1.20
2022-12-20T11:02:40.977Z,1.39
2022-12-20T11:04:03.161Z,1.37
2022-12-20T11:05:06.370Z,1.24
2022-12-20T11:06:04.584Z,1.26
2022-12-20T11:07:04.151Z,1.33
2022-12-20T11:08:36.071Z,1.85
2022-12-20T11:09:36.333Z,1.38
2022-12-20T11:10:33.243Z,1.31
2022-12-20T11:11:30.182Z,1.35
2022-12-20T11:12:26.900Z,1.39
2022-12-20T11:13:29.491Z,1.16
2022-12-20T11:14:30.281Z,1.27
2022-12-20T11:15:35.069Z,1.07
2022-12-20T11:16:41.774Z,0.92
2022-12-20T11:17:46.691Z,1.06
2022-12-20T11:19:03.794Z,1.35
2022-12-20T11:20:09.536Z,1.54
2022-12-20T11:21:11.120Z,1.76
2022-12-20T11:22:20.257Z,1.44
2022-12-20T11:23:39.077Z,1.33
2022-12-20T11:24:57.904Z,1.35
2022-12-20T11:26:35.454Z,1.39
2022-12-20T11:27:44.631Z,1.74
2022-12-20T11:29:08.727Z,1.67
2022-12-20T11:30:14.109Z,1.61
2022-12-20T11:31:21.903Z,1.69
2022-12-20T11:32:32.226Z,1.85
2022-12-20T11:33:50.928Z,1.64
2022-12-20T11:35:23.981Z,2.11
2022-12-20T11:36:44.423Z,2.17
2022-12-20T11:37:54.129Z,1.94
2022-12-20T11:39:05.169Z,1.54
2022-12-20T11:40:31.644Z,1.16
2022-12-20T11:41:37.161Z,1.57
2022-12-20T11:42:45.846Z,1.78
2022-12-20T11:44:23.121Z,1.65
2022-12-20T11:46:00.760Z,2.10
2022-12-20T11:47:12.295Z,2.20
2022-12-20T11:48:21.091Z,1.96
2022-12-20T11:49:48.416Z,1.95
2022-12-20T11:51:26.751Z,2.08
2022-12-20T11:52:29.789Z,1.61
2022-12-20T11:53:42.201Z,1.86
2022-12-20T11:54:46.234Z,1.65
2022-12-20T11:55:46.833Z,1.66
2022-12-20T11:56:47.203Z,1.73
2022-12-20T11:58:17.400Z,1.08
2022-12-20T11:59:42.758Z,1.16
2022-12-20T12:00:41.729Z,0.94
2022-12-20T12:01:48.609Z,1.36
2022-12-20T12:03:04.414Z,1.22
2022-12-20T12:04:26.242Z,1.33
2022-12-20T12:05:44.934Z,1.12
2022-12-20T12:06:47.059Z,1.12
2022-12-20T12:07:49.180Z,1.10
2022-12-20T12:09:13.453Z,1.03
2022-12-20T12:10:22.197Z,1.16
2022-12-20T12:12:05.037Z,1.32
2022-12-20T12:13:27.466Z,1.58
2022-12-20T12:14:42.481Z,1.57
2022-12-20T12:15:56.673Z,1.65
2022-12-20T12:16:59.657Z,1.95
2022-12-20T12:18:19.760Z,1.86
2022-12-20T12:19:17.071Z,1.87
2022-12-20T12:20:38.047Z,1.67
2022-12-20T12:21:40.889Z,2.00
2022-12-20T12:22:40.571Z,1.53
2022-12-20T12:23:51.993Z,1.50
2022-12-20T12:24:56.274Z,1.67
2022-12-20T12:25:52.992Z,1.76
2022-12-20T12:26:49.758Z,1.72
2022-12-20T12:27:46.389Z,1.61
2022-12-20T12:28:42.983Z,1.42
2022-12-20T12:29:39.544Z,1.57
2022-12-20T12:30:48.274Z,1.60
2022-12-20T12:32:22.085Z,1.61
2022-12-20T12:33:37.864Z,1.96
2022-12-20T12:34:54.259Z,1.86
2022-12-20T12:35:50.824Z,1.90
2022-12-20T12:37:11.860Z,1.88
2022-12-20T12:38:42.100Z,1.49
2022-12-20T12:39:52.365Z,1.57
2022-12-20T12:41:00.959Z,1.90
2022-12-20T12:42:12.376Z,2.23
2022-12-20T12:43:40.979Z,2.18
2022-12-20T12:44:54.587Z,2.12
2022-12-20T12:46:03.142Z,2.03
2022-12-20T12:47:05.716Z,1.80
2022-12-20T12:48:08.397Z,1.78
2022-12-20T12:49:12.259Z,2.04
2022-12-20T12:50:20.464Z,2.05
2022-12-20T12:51:25.167Z,2.11
2022-12-20T12:52:53.663Z,2.24
2022-12-20T12:53:53.862Z,1.67
2022-12-20T12:54:51.598Z,1.80
2022-12-20T12:56:02.380Z,2.16
2022-12-20T12:57:14.800Z,1.66
2022-12-20T12:58:24.494Z,1.40
2022-12-20T12:59:32.973Z,1.48
2022-12-20T13:00:58.870Z,1.69
2022-12-20T13:02:17.762Z,1.76
2022-12-20T13:03:16.754Z,2.09
2022-12-20T13:04:22.557Z,2.15
2022-12-20T13:05:26.009Z,1.94
2022-12-20T13:06:25.901Z,1.69
2022-12-20T13:07:40.795Z,1.79
2022-12-20T13:08:58.981Z,2.08
2022-12-20T13:09:55.634Z,1.87
2022-12-20T13:10:52.169Z,2.08
2022-12-20T13:11:57.434Z,1.84
2022-12-20T13:13:01.983Z,1.84
2022-12-20T13:14:17.365Z,1.67